Danbury, CT

3:26 PM EST on December 19, 2014 (GMT -0500)
Wooster Sq | Change Station
CLOSE
Current Station
Personal Weather Station
Location: Danbury, CT
Elevation: 489 ft
Nearby Weather Stations

Elev 489 ft 41.38 °N, 73.46 °W | Updated 10 seconds ago

Overcast
Overcast
35.1 °F
Feels Like 35 °F
N
0.9
Wind Variable Wind from NNW
Gusts 5.0 mph

Today
High -- | Low -- °F
--% Chance of Precip.
Yesterday
High -- | Low -- °F
Precip. -- in
7:15 AM 4:26 PM
Waning Crescent, 6% visible
Pressure 30.04 in
Visibility 10.0 miles
Clouds Overcast 3500 ft
Windchill 35 °F
Dew Point 24 °F
Humidity 63%
Rainfall 0.00 in
Snow Depth Not available.
UV 0 out of 12
Pollen .10 out of 12
Air Quality Not available.
Flu Activity Not available.
METAR KDXR 191953Z 31010KT 280V340 10SM OVC035 02/M07 A3003 RMK AO2 SLP171 T00171072

More Conditions Fewer Conditions

Pressure 30.04 in
Visibility 10.0 miles
Clouds Overcast 3500 ft
Windchill 35 °F
Dew Point 24 °F
Humidity 63%
Rainfall 0.00 in
Snow Depth Not available.
UV 0 out of 12
Pollen .10 out of 12
Air Quality Not available.
Flu Activity Not available.
METAR KDXR 191953Z 31010KT 280V340 10SM OVC035 02/M07 A3003 RMK AO2 SLP171 T00171072

More Conditions Fewer Conditions

10-Day Weather Forecast

Almanac

Astronomy

Dec. 19, 2014 Rise Set
Actual Time
Civil Twilight
Nautical Twilight
Astronomical Twilight
Moon
Length of Visible Light
Length of Day
Tomorrow will be .
, % of the Moon is Illuminated

Today's Extremes

State Highs State Lows

Community

WunderPhotos

Upload Photos

1,779,047 photos uploaded!

WunderBlogs® & News

Nearby

Air Quality

  Air Quality AQ Index Pollutant
Not available.

Snow Depth

Station Depth Elevation

Earthquake Activity

City Distance Mag. Time & Date
Minimum magnitude displayed is 2.5.

Coastal Water Temperatures

Place Temperature

Nearby Weather Stations